createdAt,value
2023-03-06T00:00:59.969Z,79.98
2023-03-06T00:04:02.899Z,80.10
2023-03-06T00:07:05.565Z,80.36
2023-03-06T00:10:09.285Z,80.36
2023-03-06T00:13:13.645Z,80.22
2023-03-06T00:16:16.425Z,80.95
2023-03-06T00:19:18.983Z,81.21
2023-03-06T00:22:21.828Z,81.26
2023-03-06T00:25:24.930Z,80.72
2023-03-06T00:28:31.018Z,80.67
2023-03-06T00:31:34.072Z,80.48
2023-03-06T00:34:36.960Z,81.00
2023-03-06T00:37:40.084Z,81.42
2023-03-06T00:40:42.862Z,81.58
2023-03-06T00:43:45.516Z,81.53
2023-03-06T00:46:48.331Z,81.40
2023-03-06T00:49:51.052Z,81.02
2023-03-06T00:52:54.724Z,81.25
2023-03-06T00:55:57.307Z,81.19
2023-03-06T00:59:00.097Z,81.57
2023-03-06T01:02:03.913Z,81.65
2023-03-06T01:05:08.304Z,81.34
2023-03-06T01:08:10.932Z,81.33
2023-03-06T01:11:13.815Z,81.19
2023-03-06T01:14:19.106Z,81.21
2023-03-06T01:17:21.955Z,81.43
2023-03-06T01:20:24.788Z,81.37
2023-03-06T01:23:27.629Z,81.28
2023-03-06T01:26:30.563Z,80.97
2023-03-06T01:29:34.040Z,80.62
2023-03-06T01:32:36.644Z,80.31
2023-03-06T01:35:40.041Z,80.36
2023-03-06T01:38:43.140Z,80.10
2023-03-06T01:41:46.147Z,79.67
2023-03-06T01:45:20.864Z,79.14
2023-03-06T01:48:24.581Z,78.49
2023-03-06T01:51:33.955Z,78.87
2023-03-06T01:54:42.961Z,78.78
2023-03-06T01:57:47.711Z,78.90
2023-03-06T02:00:50.550Z,78.89
2023-03-06T02:03:53.563Z,79.12
2023-03-06T02:06:57.079Z,79.42
2023-03-06T02:09:59.993Z,79.48
2023-03-06T02:13:03.056Z,79.57
2023-03-06T02:16:07.149Z,79.34
2023-03-06T02:19:39.719Z,79.50
2023-03-06T02:22:54.433Z,79.45
2023-03-06T02:25:58.806Z,79.91
2023-03-06T02:29:01.932Z,80.31
2023-03-06T02:32:05.377Z,80.53
2023-03-06T02:35:34.510Z,80.56
2023-03-06T02:38:44.380Z,80.94
2023-03-06T02:41:47.097Z,81.34
2023-03-06T02:44:52.263Z,81.49
2023-03-06T02:47:55.003Z,81.58
2023-03-06T02:50:57.975Z,81.72
2023-03-06T02:54:01.640Z,81.90
2023-03-06T02:57:04.616Z,82.12
2023-03-06T03:00:08.514Z,82.11
2023-03-06T03:03:11.472Z,81.88
2023-03-06T03:06:14.152Z,81.88
2023-03-06T03:09:17.819Z,82.15
2023-03-06T03:12:22.393Z,82.16
2023-03-06T03:15:26.080Z,81.94
2023-03-06T03:18:29.367Z,82.03
2023-03-06T03:21:32.318Z,81.97
2023-03-06T03:24:35.332Z,82.09
2023-03-06T03:27:38.810Z,82.16
2023-03-06T03:30:42.777Z,82.08
2023-03-06T03:33:46.210Z,81.91
2023-03-06T03:36:49.131Z,81.88
2023-03-06T03:39:52.101Z,81.92
2023-03-06T03:42:54.861Z,81.64
2023-03-06T03:45:58.057Z,81.62
2023-03-06T03:49:00.980Z,81.51
2023-03-06T03:52:04.588Z,81.49
2023-03-06T03:55:08.116Z,81.60
2023-03-06T03:58:12.422Z,80.98
2023-03-06T04:01:15.001Z,80.93
2023-03-06T04:04:18.459Z,80.66
2023-03-06T04:07:21.313Z,80.44
2023-03-06T04:10:24.770Z,80.21
2023-03-06T04:13:27.552Z,79.82
2023-03-06T04:16:30.557Z,79.82
2023-03-06T04:19:33.402Z,79.73
2023-03-06T04:22:36.965Z,79.93
2023-03-06T04:25:40.522Z,79.74
2023-03-06T04:28:43.921Z,79.75
2023-03-06T04:31:46.659Z,79.95
2023-03-06T04:34:49.988Z,80.00
2023-03-06T04:37:52.580Z,79.98
2023-03-06T04:40:56.344Z,80.00
2023-03-06T04:43:59.203Z,80.16
2023-03-06T04:47:02.091Z,80.22
2023-03-06T04:50:05.236Z,80.35
2023-03-06T04:53:09.044Z,80.28
2023-03-06T04:56:11.624Z,80.18
2023-03-06T04:59:14.452Z,80.20
2023-03-06T05:02:17.843Z,80.27
2023-03-06T05:05:20.718Z,80.67
2023-03-06T05:08:23.985Z,80.82
2023-03-06T05:11:27.365Z,81.42
2023-03-06T05:14:30.616Z,81.70
2023-03-06T05:17:33.436Z,81.96
2023-03-06T05:20:36.155Z,82.05
2023-03-06T05:23:38.955Z,82.33
2023-03-06T05:26:41.485Z,82.48
2023-03-06T05:29:44.452Z,83.21
2023-03-06T05:32:47.260Z,82.99
2023-03-06T05:35:50.466Z,83.92
2023-03-06T05:38:53.260Z,84.60
2023-03-06T05:41:56.155Z,83.80
2023-03-06T05:44:58.785Z,84.33
2023-03-06T05:48:01.958Z,84.75
2023-03-06T05:51:05.797Z,84.51
2023-03-06T05:54:08.888Z,85.51
2023-03-06T05:57:11.484Z,85.52
2023-03-06T06:00:15.626Z,85.29
2023-03-06T06:03:20.702Z,85.35
2023-03-06T06:06:23.365Z,85.49
2023-03-06T06:09:27.573Z,85.69
2023-03-06T06:12:30.106Z,85.78
2023-03-06T06:15:33.196Z,85.58
2023-03-06T06:18:35.805Z,85.46
2023-03-06T06:21:38.725Z,85.18
2023-03-06T06:24:41.346Z,85.21
2023-03-06T06:27:44.241Z,85.34
2023-03-06T06:30:46.774Z,85.78
2023-03-06T06:33:49.679Z,86.00
2023-03-06T06:36:53.639Z,86.45
2023-03-06T06:39:56.805Z,86.33
2023-03-06T06:42:59.354Z,86.65
2023-03-06T06:46:28.315Z,86.58
2023-03-06T06:49:25.483Z,86.34
2023-03-06T06:52:28.489Z,86.17
2023-03-06T06:55:31.250Z,86.26
2023-03-06T06:58:34.193Z,86.07
2023-03-06T07:01:37.125Z,86.01
2023-03-06T07:04:49.291Z,86.38
2023-03-06T07:08:02.900Z,86.12
2023-03-06T07:11:08.229Z,86.24
2023-03-06T07:14:11.096Z,85.84
2023-03-06T07:17:13.994Z,85.97
2023-03-06T07:20:16.893Z,85.90
2023-03-06T07:23:20.002Z,85.57
2023-03-06T07:26:24.188Z,85.19
2023-03-06T07:29:27.245Z,85.15
2023-03-06T07:32:30.054Z,85.21
2023-03-06T07:35:33.372Z,85.27
2023-03-06T07:38:36.705Z,85.10
2023-03-06T07:41:39.541Z,84.54
2023-03-06T07:44:42.348Z,84.44
2023-03-06T07:47:45.324Z,84.25
2023-03-06T07:51:04.629Z,83.95
2023-03-06T07:54:07.684Z,83.58
2023-03-06T07:57:10.528Z,83.77
2023-03-06T08:00:15.427Z,83.33
2023-03-06T08:03:19.114Z,83.29
2023-03-06T08:06:24.311Z,83.30
2023-03-06T08:09:27.629Z,83.55
2023-03-06T08:12:30.662Z,83.69
2023-03-06T08:15:33.654Z,83.66
2023-03-06T08:18:39.953Z,84.41
2023-03-06T08:21:43.177Z,84.78
2023-03-06T08:24:45.871Z,86.01
2023-03-06T08:27:48.928Z,85.87
2023-03-06T08:30:51.637Z,87.57
2023-03-06T08:33:55.665Z,86.97
2023-03-06T08:36:58.453Z,86.92
2023-03-06T08:40:04.765Z,87.45
2023-03-06T08:43:13.084Z,88.90
2023-03-06T08:46:18.823Z,90.17
2023-03-06T08:49:21.847Z,88.34
2023-03-06T08:52:24.895Z,89.30
2023-03-06T08:55:28.282Z,90.78
2023-03-06T08:58:31.482Z,90.89
2023-03-06T09:01:36.989Z,90.27
2023-03-06T09:04:40.783Z,91.36
2023-03-06T09:07:43.651Z,91.44
2023-03-06T09:10:47.951Z,91.19
2023-03-06T09:13:51.009Z,91.71
2023-03-06T09:16:54.285Z,91.56
2023-03-06T09:19:56.945Z,91.75
2023-03-06T09:22:59.983Z,91.70
2023-03-06T09:26:03.111Z,91.63
2023-03-06T09:29:06.339Z,92.88
2023-03-06T09:32:11.140Z,92.38
2023-03-06T09:35:15.244Z,92.13
2023-03-06T09:38:23.534Z,91.92
2023-03-06T09:41:37.432Z,92.74
2023-03-06T09:44:41.323Z,93.34
2023-03-06T09:48:11.161Z,93.47
2023-03-06T09:51:17.490Z,93.73
2023-03-06T09:54:25.425Z,94.49
2023-03-06T09:57:35.738Z,94.73
2023-03-06T10:01:06.858Z,94.50
2023-03-06T10:04:44.298Z,95.56
2023-03-06T10:07:52.873Z,96.06
2023-03-06T10:11:10.766Z,95.88
2023-03-06T10:14:18.918Z,95.99
2023-03-06T10:17:23.069Z,96.97
2023-03-06T10:20:28.027Z,97.60
2023-03-06T10:23:54.869Z,96.08
2023-03-06T10:27:11.153Z,96.68
2023-03-06T10:30:20.733Z,96.27
2023-03-06T10:33:48.241Z,97.63
2023-03-06T10:36:51.266Z,96.46
2023-03-06T10:39:59.952Z,95.87
2023-03-06T10:43:11.421Z,96.27
2023-03-06T10:46:27.237Z,96.57
2023-03-06T10:49:31.835Z,95.70
2023-03-06T10:52:35.792Z,94.55
2023-03-06T10:55:38.771Z,96.51
2023-03-06T10:58:41.406Z,94.85
2023-03-06T11:01:46.779Z,94.31
2023-03-06T11:04:53.056Z,94.07
2023-03-06T11:07:59.497Z,93.45
2023-03-06T11:11:05.958Z,92.11
2023-03-06T11:14:18.011Z,91.01
2023-03-06T11:17:32.244Z,89.46
2023-03-06T11:20:51.357Z,88.93
2023-03-06T11:23:57.818Z,88.11
2023-03-06T11:27:17.357Z,86.61
2023-03-06T11:30:43.371Z,87.19
2023-03-06T11:33:54.212Z,84.80
2023-03-06T11:37:27.316Z,84.03
2023-03-06T11:40:52.085Z,84.10
2023-03-06T11:44:05.401Z,83.48
2023-03-06T11:47:18.024Z,83.96
2023-03-06T11:50:40.810Z,84.08
2023-03-06T11:53:43.961Z,83.57
2023-03-06T11:57:02.967Z,83.91
2023-03-06T12:00:12.278Z,82.13
2023-03-06T12:03:57.930Z,81.82
2023-03-06T12:07:00.731Z,81.28
2023-03-06T12:10:06.479Z,81.49
2023-03-06T12:13:18.016Z,80.19
2023-03-06T12:16:26.821Z,79.70
2023-03-06T12:20:07.348Z,80.15
2023-03-06T12:23:24.142Z,79.98
2023-03-06T12:26:39.096Z,79.31
2023-03-06T12:30:07.895Z,79.25
2023-03-06T12:33:35.261Z,78.75
2023-03-06T12:36:41.056Z,79.52
2023-03-06T12:39:52.737Z,81.52
2023-03-06T12:43:23.204Z,80.01
2023-03-06T12:46:27.110Z,80.85
2023-03-06T12:49:34.633Z,80.44
2023-03-06T12:52:37.477Z,80.09
2023-03-06T12:55:47.979Z,79.99
2023-03-06T12:58:53.100Z,81.58
2023-03-06T13:02:01.961Z,81.36
2023-03-06T13:05:14.053Z,82.58
2023-03-06T13:08:37.334Z,83.29
2023-03-06T13:12:14.003Z,83.06
2023-03-06T13:15:37.335Z,82.78
2023-03-06T13:18:49.157Z,82.42
2023-03-06T13:21:55.427Z,82.62
2023-03-06T13:25:27.115Z,81.97
2023-03-06T13:28:48.734Z,81.84
2023-03-06T13:31:54.459Z,81.51
2023-03-06T13:34:57.553Z,81.48
2023-03-06T13:38:00.445Z,81.65
2023-03-06T13:41:25.233Z,82.54
2023-03-06T13:44:28.434Z,81.21
2023-03-06T13:48:10.952Z,81.07
2023-03-06T13:51:24.451Z,81.51
2023-03-06T13:54:47.871Z,80.98
2023-03-06T13:58:13.301Z,81.31
2023-03-06T14:01:28.692Z,81.68
2023-03-06T14:04:34.428Z,81.93
2023-03-06T14:07:41.580Z,82.47
2023-03-06T14:10:46.113Z,82.76
2023-03-06T14:13:51.924Z,82.13
2023-03-06T14:16:55.307Z,82.04
2023-03-06T14:20:14.151Z,82.64
2023-03-06T14:23:32.258Z,82.85
2023-03-06T14:26:47.362Z,82.67
2023-03-06T14:29:50.256Z,83.01
2023-03-06T14:32:54.355Z,84.03
2023-03-06T14:36:01.282Z,83.86
2023-03-06T14:39:29.976Z,84.09
2023-03-06T14:42:33.703Z,85.00
2023-03-06T14:45:36.580Z,84.85
2023-03-06T14:48:44.487Z,85.48
2023-03-06T14:51:50.466Z,85.40
2023-03-06T14:54:54.258Z,85.01
2023-03-06T14:58:08.320Z,85.17
2023-03-06T15:01:13.360Z,85.33
2023-03-06T15:04:45.095Z,85.76
2023-03-06T15:07:48.507Z,85.81
2023-03-06T15:10:59.597Z,85.90
2023-03-06T15:14:04.788Z,85.94
2023-03-06T15:17:19.398Z,86.38
2023-03-06T15:20:56.054Z,86.27
2023-03-06T15:23:59.714Z,86.20
2023-03-06T15:27:05.233Z,86.61
2023-03-06T15:30:29.389Z,86.84
2023-03-06T15:33:32.304Z,86.95
2023-03-06T15:36:39.618Z,86.89
2023-03-06T15:39:43.507Z,87.38
2023-03-06T15:42:46.472Z,86.86
2023-03-06T15:45:49.396Z,87.01
2023-03-06T15:48:53.829Z,86.83
2023-03-06T15:51:56.926Z,86.68
2023-03-06T15:54:59.722Z,87.76
2023-03-06T15:58:03.318Z,87.80
2023-03-06T16:01:06.467Z,87.83
2023-03-06T16:04:09.599Z,88.48
2023-03-06T16:07:12.582Z,88.74
2023-03-06T16:10:18.612Z,89.01
2023-03-06T16:13:28.974Z,89.04
2023-03-06T16:16:37.322Z,89.22
2023-03-06T16:19:40.480Z,89.30
2023-03-06T16:22:45.003Z,90.34
2023-03-06T16:25:48.715Z,91.11
2023-03-06T16:28:51.709Z,91.31
2023-03-06T16:31:56.540Z,90.82
2023-03-06T16:34:59.650Z,91.19
2023-03-06T16:38:02.512Z,91.28
2023-03-06T16:41:05.654Z,91.42
2023-03-06T16:44:10.172Z,91.97
2023-03-06T16:47:14.572Z,92.39
2023-03-06T16:50:38.895Z,93.36
2023-03-06T16:53:46.514Z,94.92
2023-03-06T16:56:49.184Z,95.85
2023-03-06T16:59:52.308Z,96.02
2023-03-06T17:02:55.731Z,96.04
2023-03-06T17:05:58.791Z,96.96
2023-03-06T17:09:01.538Z,97.23
2023-03-06T17:12:04.714Z,97.22
2023-03-06T17:15:08.816Z,97.57
2023-03-06T17:18:12.063Z,97.00
2023-03-06T17:21:17.949Z,98.08
2023-03-06T17:24:21.113Z,98.62
2023-03-06T17:27:23.863Z,99.68
2023-03-06T17:30:27.235Z,100.00
2023-03-06T17:33:30.001Z,100.00
2023-03-06T17:36:33.116Z,100.00
2023-03-06T17:39:38.010Z,100.00
2023-03-06T17:42:41.329Z,100.00
2023-03-06T17:45:45.523Z,100.00
2023-03-06T17:48:48.669Z,100.00
2023-03-06T17:51:56.451Z,100.00
2023-03-06T17:54:59.954Z,100.00
2023-03-06T17:58:02.785Z,100.00
2023-03-06T18:01:22.442Z,100.00
2023-03-06T18:04:26.180Z,100.00
2023-03-06T18:07:29.019Z,100.00
2023-03-06T18:10:32.159Z,100.00
2023-03-06T18:13:37.598Z,100.00
2023-03-06T18:16:40.910Z,100.00
2023-03-06T18:19:43.745Z,100.00
2023-03-06T18:22:46.923Z,100.00
2023-03-06T18:25:50.507Z,100.00
2023-03-06T18:28:56.617Z,100.00
2023-03-06T18:31:59.539Z,100.00
2023-03-06T18:35:02.651Z,100.00
2023-03-06T18:38:05.532Z,100.00
2023-03-06T18:41:08.849Z,100.00
2023-03-06T18:44:14.664Z,100.00
2023-03-06T18:47:17.869Z,100.00
2023-03-06T18:50:20.976Z,100.00
2023-03-06T18:53:24.087Z,100.00
2023-03-06T18:56:27.133Z,100.00
2023-03-06T18:59:33.340Z,100.00
2023-03-06T19:02:36.192Z,100.00
2023-03-06T19:05:44.557Z,100.00
2023-03-06T19:08:48.104Z,100.00
2023-03-06T19:11:53.688Z,100.00
2023-03-06T19:14:58.986Z,100.00
2023-03-06T19:18:02.108Z,100.00
2023-03-06T19:21:14.367Z,100.00
2023-03-06T19:24:17.592Z,100.00
2023-03-06T19:27:20.618Z,100.00
2023-03-06T19:30:25.877Z,100.00
2023-03-06T19:33:28.735Z,100.00
2023-03-06T19:36:34.027Z,100.00
2023-03-06T19:39:36.985Z,100.00
2023-03-06T19:42:40.088Z,100.00
2023-03-06T19:45:44.190Z,100.00
2023-03-06T19:48:47.480Z,100.00
2023-03-06T19:51:50.610Z,100.00
2023-03-06T19:54:54.301Z,100.00
2023-03-06T19:57:57.777Z,100.00
2023-03-06T20:01:16.849Z,100.00
2023-03-06T20:04:20.075Z,100.00
2023-03-06T20:07:22.974Z,100.00
2023-03-06T20:10:25.979Z,100.00
2023-03-06T20:13:28.599Z,100.00
2023-03-06T20:16:32.677Z,100.00
2023-03-06T20:19:35.439Z,100.00
2023-03-06T20:22:38.561Z,100.00
2023-03-06T20:25:41.419Z,100.00
2023-03-06T20:28:45.178Z,100.00
2023-03-06T20:31:47.964Z,100.00
2023-03-06T20:34:51.374Z,100.00
2023-03-06T20:37:54.393Z,100.00
2023-03-06T20:40:58.932Z,100.00
2023-03-06T20:44:04.220Z,100.00
2023-03-06T20:47:09.004Z,100.00
2023-03-06T20:50:11.937Z,100.00
2023-03-06T20:53:15.021Z,100.00
2023-03-06T20:56:19.961Z,100.00
2023-03-06T20:59:23.855Z,100.00
2023-03-06T21:02:27.101Z,100.00
2023-03-06T21:05:30.131Z,100.00
2023-03-06T21:08:32.726Z,100.00
2023-03-06T21:11:35.725Z,100.00
2023-03-06T21:14:38.515Z,100.00
2023-03-06T21:17:41.692Z,100.00
2023-03-06T21:20:44.974Z,100.00
2023-03-06T21:23:48.523Z,100.00
2023-03-06T21:26:51.995Z,100.00
2023-03-06T21:29:54.916Z,100.00
2023-03-06T21:32:57.428Z,100.00
2023-03-06T21:36:00.450Z,100.00
2023-03-06T21:39:06.324Z,100.00
2023-03-06T21:42:09.877Z,100.00
2023-03-06T21:45:12.732Z,100.00
2023-03-06T21:48:16.010Z,100.00
2023-03-06T21:51:20.876Z,100.00
2023-03-06T21:54:23.836Z,100.00
2023-03-06T21:57:26.758Z,100.00
2023-03-06T22:00:29.814Z,100.00
2023-03-06T22:03:32.794Z,100.00
2023-03-06T22:06:35.309Z,100.00
2023-03-06T22:09:38.161Z,100.00
2023-03-06T22:12:40.788Z,100.00
2023-03-06T22:15:53.419Z,100.00
2023-03-06T22:18:56.522Z,100.00
2023-03-06T22:21:59.415Z,100.00
2023-03-06T22:25:02.277Z,100.00
2023-03-06T22:28:05.159Z,100.00
2023-03-06T22:31:14.681Z,100.00
2023-03-06T22:34:17.575Z,100.00
2023-03-06T22:37:20.058Z,100.00
2023-03-06T22:40:22.890Z,100.00
2023-03-06T22:43:25.470Z,100.00
2023-03-06T22:46:28.340Z,100.00
2023-03-06T22:49:31.078Z,100.00
2023-03-06T22:52:34.208Z,100.00
2023-03-06T22:55:36.795Z,100.00
2023-03-06T22:58:40.423Z,100.00
2023-03-06T23:01:43.277Z,100.00
2023-03-06T23:04:52.354Z,100.00
2023-03-06T23:07:54.927Z,100.00
2023-03-06T23:10:57.278Z,100.00
2023-03-06T23:14:19.196Z,100.00
2023-03-06T23:17:40.316Z,100.00
2023-03-06T23:21:00.957Z,100.00
2023-03-06T23:24:22.585Z,100.00
2023-03-06T23:27:25.598Z,100.00
2023-03-06T23:30:28.255Z,100.00
2023-03-06T23:33:31.126Z,100.00
2023-03-06T23:36:33.848Z,100.00
2023-03-06T23:39:37.534Z,100.00
2023-03-06T23:42:40.354Z,100.00
2023-03-06T23:45:52.898Z,100.00
2023-03-06T23:48:55.540Z,100.00
2023-03-06T23:51:58.649Z,100.00
2023-03-06T23:55:01.657Z,100.00
2023-03-06T23:58:04.863Z,100.00
